Time;durP1;ratioP1;P1;durP2;ratioP2;P2;SDS_P1;SDS_P2;PMS_P1;PMS_P2;Temp;Humidity;BMP_temperature;BMP_pressure;BME280_temperature;BME280_humidity;BME280_pressure;Samples;Min_cycle;Max_cycle;Signal;HPM_P1;HPM_P2
2022/12/30 00:00:50;;;;;;;0.60;0.30;;;7.90;99.90;;;;;;4992889;28;20214;-79
2022/12/30 00:03:16;;;;;;;0.60;0.30;;;7.80;99.90;;;;;;4976155;28;20178;-79
2022/12/30 00:05:42;;;;;;;0.70;0.40;;;8.00;99.90;;;;;;4976248;28;20486;-80
2022/12/30 00:08:45;;;;;;;1.17;0.37;;;7.80;99.90;;;;;;4992075;28;20241;-79
2022/12/30 00:10:53;;;;;;;2.20;0.40;;;7.90;99.90;;;;;;4992273;28;20454;-79
2022/12/30 00:35:19;;;;;;;1.40;0.40;;;7.80;99.90;;;;;;4993098;28;20788;-80
2022/12/30 00:37:44;;;;;;;0.70;0.43;;;7.90;99.90;;;;;;4993738;28;20511;-79
2022/12/30 00:40:11;;;;;;;3.20;0.40;;;7.80;99.90;;;;;;4991809;28;20879;-79
2022/12/30 00:43:10;;;;;;;1.70;0.50;;;7.80;99.90;;;;;;4975408;28;20284;-79
2022/12/30 00:45:28;;;;;;;2.50;0.60;;;7.80;99.90;;;;;;4991434;28;20478;-80
2022/12/30 00:47:54;;;;;;;0.90;0.53;;;7.80;99.90;;;;;;5010758;28;20500;-79
2022/12/30 00:58:32;;;;;;;1.93;0.40;;;7.80;99.90;;;;;;4984685;28;20424;-82
2022/12/30 01:00:57;;;;;;;1.53;0.40;;;7.80;99.90;;;;;;4981125;28;20429;-82
2022/12/30 01:03:23;;;;;;;3.90;0.73;;;7.80;99.90;;;;;;4996900;28;20190;-82
2022/12/30 01:05:48;;;;;;;0.77;0.67;;;7.80;99.90;;;;;;4997506;28;20190;-82
2022/12/30 01:08:14;;;;;;;1.77;0.40;;;7.90;99.90;;;;;;4999425;28;20206;-82
2022/12/30 01:10:40;;;;;;;1.20;0.30;;;7.90;99.90;;;;;;4998462;28;20686;-82
2022/12/30 01:13:07;;;;;;;1.00;0.43;;;7.80;99.90;;;;;;4997063;28;20186;-81
2022/12/30 01:15:33;;;;;;;2.10;0.50;;;7.80;99.90;;;;;;4979765;28;20483;-80
2022/12/30 01:17:59;;;;;;;1.40;0.40;;;8.00;99.90;;;;;;4997353;28;20436;-81
2022/12/30 01:20:24;;;;;;;0.70;0.30;;;7.80;99.90;;;;;;4979751;28;20451;-81
2022/12/30 01:22:50;;;;;;;0.97;0.30;;;7.80;99.90;;;;;;4979581;28;20204;-80
2022/12/30 01:25:15;;;;;;;1.10;0.40;;;7.80;99.90;;;;;;4962947;28;20304;-81
2022/12/30 01:27:41;;;;;;;1.00;0.40;;;7.80;99.90;;;;;;4979686;28;20236;-82
2022/12/30 01:30:08;;;;;;;0.70;0.40;;;7.70;99.90;;;;;;4996324;28;20202;-82
2022/12/30 01:32:36;;;;;;;1.03;0.40;;;7.70;99.90;;;;;;4979537;28;20202;-80
2022/12/30 01:35:03;;;;;;;1.33;0.40;;;7.70;99.90;;;;;;4997222;28;20894;-80
2022/12/30 01:37:28;;;;;;;1.20;0.40;;;7.60;99.90;;;;;;4996167;28;20473;-79
2022/12/30 01:39:54;;;;;;;1.47;0.50;;;7.60;99.90;;;;;;4996099;28;20464;-79
2022/12/30 01:42:21;;;;;;;1.27;0.50;;;7.60;99.90;;;;;;4996666;28;20182;-80
2022/12/30 01:44:52;;;;;;;0.70;0.40;;;7.60;99.90;;;;;;5001121;28;20232;-81
2022/12/30 01:47:38;;;;;;;1.37;0.43;;;7.60;99.90;;;;;;4981613;28;20434;-80
2022/12/30 01:50:09;;;;;;;0.70;0.37;;;7.60;99.90;;;;;;4999055;28;20433;-80
2022/12/30 01:52:39;;;;;;;1.77;0.40;;;7.60;99.90;;;;;;4998138;28;20473;-80
2022/12/30 01:55:14;;;;;;;1.13;0.50;;;7.60;99.90;;;;;;4978509;28;20520;-80
2022/12/30 01:57:44;;;;;;;2.50;0.40;;;7.60;99.90;;;;;;4973942;28;20428;-79
2022/12/30 02:00:10;;;;;;;0.70;0.37;;;7.60;99.90;;;;;;4990545;28;20451;-79
2022/12/30 02:02:36;;;;;;;3.20;0.40;;;7.70;99.90;;;;;;4973976;28;20430;-79
2022/12/30 02:05:05;;;;;;;2.30;0.50;;;7.70;99.90;;;;;;4957971;28;20951;-79
2022/12/30 02:07:40;;;;;;;2.40;0.60;;;7.60;99.90;;;;;;4974154;28;20769;-79
2022/12/30 02:10:08;;;;;;;0.70;0.40;;;7.60;99.90;;;;;;4991492;28;21159;-78
2022/12/30 02:12:34;;;;;;;0.70;0.40;;;7.60;99.90;;;;;;4973420;28;20425;-79
2022/12/30 02:15:01;;;;;;;1.40;0.40;;;7.50;99.90;;;;;;4973021;28;20421;-79
2022/12/30 02:17:56;;;;;;;0.73;0.40;;;7.60;99.90;;;;;;4990361;28;20430;-78
2022/12/30 02:20:43;;;;;;;1.43;0.50;;;7.50;99.90;;;;;;4990604;28;20835;-78
2022/12/30 02:23:35;;;;;;;1.07;0.40;;;7.40;99.90;;;;;;4991099;28;20866;-78
2022/12/30 02:26:13;;;;;;;2.70;0.43;;;7.60;99.90;;;;;;4991040;28;20823;-79
2022/12/30 02:29:06;;;;;;;0.70;0.50;;;7.50;99.90;;;;;;4989481;28;20821;-79
2022/12/30 02:31:57;;;;;;;1.20;0.40;;;7.50;99.90;;;;;;4991427;28;20416;-81
2022/12/30 02:34:59;;;;;;;5.60;0.60;;;7.50;99.90;;;;;;4991102;28;20428;-80
2022/12/30 02:37:39;;;;;;;0.90;0.40;;;7.50;99.90;;;;;;4991960;28;20507;-80
2022/12/30 02:44:36;;;;;;;1.77;0.60;;;7.50;99.90;;;;;;4975770;28;20527;-78
2022/12/30 02:46:10;;;;;;;1.90;0.40;;;7.50;99.90;;;;;;4991739;28;20503;-80
2022/12/30 02:48:40;;;;;;;2.10;0.50;;;7.30;99.90;;;;;;4992348;28;20786;-80
2022/12/30 02:53:50;;;;;;;0.70;0.40;;;7.30;99.90;;;;;;4992088;28;20864;-80
2022/12/30 02:56:15;;;;;;;1.50;0.43;;;7.30;99.90;;;;;;4976304;28;20461;-80
2022/12/30 02:58:48;;;;;;;1.33;0.50;;;7.40;99.90;;;;;;4976201;28;20200;-80
2022/12/30 03:04:48;;;;;;;1.10;0.50;;;7.30;99.90;;;;;;4992901;28;20452;-79
2022/12/30 03:07:14;;;;;;;2.20;0.40;;;7.20;99.90;;;;;;4992655;28;20409;-79
2022/12/30 03:09:42;;;;;;;0.97;0.40;;;7.10;99.90;;;;;;4991776;28;20460;-78
2022/12/30 03:12:29;;;;;;;1.10;0.40;;;7.10;99.90;;;;;;4990855;28;20247;-78
2022/12/30 03:15:05;;;;;;;1.63;0.40;;;7.10;99.90;;;;;;4989687;28;20499;-78
2022/12/30 03:17:34;;;;;;;0.80;0.50;;;7.20;99.90;;;;;;4973096;28;20467;-79
2022/12/30 03:20:05;;;;;;;1.00;0.40;;;7.10;99.90;;;;;;4990670;28;20437;-79
2022/12/30 03:28:10;;;;;;;2.10;0.60;;;6.90;99.90;;;;;;4990287;28;20421;-80
2022/12/30 03:30:43;;;;;;;2.50;0.70;;;6.80;99.90;;;;;;4990725;28;20854;-80
2022/12/30 03:33:10;;;;;;;3.07;0.63;;;6.70;99.90;;;;;;4972739;28;20442;-80
2022/12/30 03:35:41;;;;;;;3.13;0.50;;;6.60;99.90;;;;;;4973134;28;20456;-80
2022/12/30 03:38:09;;;;;;;0.70;0.40;;;6.40;99.90;;;;;;4989413;28;20421;-80
2022/12/30 03:40:39;;;;;;;8.83;0.67;;;6.30;99.90;;;;;;4990305;28;20436;-80
2022/12/30 03:43:06;;;;;;;0.90;0.53;;;6.20;99.90;;;;;;4990300;28;20432;-80
2022/12/30 03:45:32;;;;;;;2.30;0.40;;;6.20;99.90;;;;;;4990512;28;20473;-80
2022/12/30 03:47:58;;;;;;;1.03;0.50;;;6.10;99.90;;;;;;4973040;28;20472;-80
2022/12/30 03:50:24;;;;;;;0.70;0.40;;;6.10;99.90;;;;;;4973022;28;20201;-79
2022/12/30 03:52:49;;;;;;;0.97;0.57;;;6.20;99.90;;;;;;4956752;28;20188;-79
2022/12/30 03:55:15;;;;;;;1.23;0.53;;;5.90;99.90;;;;;;4972698;28;20276;-80
2022/12/30 03:57:40;;;;;;;3.33;0.40;;;5.80;99.90;;;;;;4972982;28;20650;-78
2022/12/30 04:00:09;;;;;;;0.70;0.57;;;5.80;99.90;;;;;;4972808;28;20741;-78
2022/12/30 04:02:36;;;;;;;0.70;0.40;;;5.70;99.90;;;;;;4988946;28;20197;-78
2022/12/30 04:05:01;;;;;;;1.80;0.47;;;5.70;99.90;;;;;;4988463;28;20992;-77
2022/12/30 04:07:27;;;;;;;1.57;0.60;;;5.70;99.90;;;;;;4972382;28;20431;-77
2022/12/30 04:09:53;;;;;;;0.80;0.50;;;5.80;99.90;;;;;;4990072;28;20210;-78
2022/12/30 04:12:19;;;;;;;1.33;0.53;;;5.90;99.90;;;;;;4989758;28;20603;-79
2022/12/30 04:14:44;;;;;;;1.00;0.40;;;6.00;99.90;;;;;;4988322;28;20436;-79
2022/12/30 04:17:10;;;;;;;1.33;0.40;;;6.20;99.90;;;;;;4972372;28;20210;-81
2022/12/30 04:19:35;;;;;;;0.70;0.50;;;6.20;99.90;;;;;;4988054;28;20205;-79
2022/12/30 04:22:01;;;;;;;1.03;0.40;;;6.10;99.90;;;;;;4956345;28;20200;-79
2022/12/30 04:24:27;;;;;;;0.70;0.40;;;6.10;99.90;;;;;;4971959;28;20213;-79
2022/12/30 04:26:52;;;;;;;0.70;0.40;;;6.20;99.90;;;;;;4988492;28;20189;-79
2022/12/30 04:29:18;;;;;;;3.53;0.50;;;6.10;99.90;;;;;;4973011;28;20209;-79
2022/12/30 04:31:44;;;;;;;0.90;0.40;;;6.00;99.90;;;;;;4990502;28;20718;-78
2022/12/30 04:34:12;;;;;;;0.70;0.40;;;5.90;99.90;;;;;;4988962;28;20474;-78
2022/12/30 04:36:37;;;;;;;0.70;0.40;;;5.90;99.90;;;;;;4990110;28;20273;-79
2022/12/30 04:39:03;;;;;;;0.70;0.43;;;5.90;99.90;;;;;;4973385;28;20956;-79
2022/12/30 04:41:29;;;;;;;1.93;0.50;;;5.90;99.90;;;;;;4976543;28;20193;-80
2022/12/30 04:43:55;;;;;;;0.70;0.40;;;5.90;99.90;;;;;;4976599;28;20590;-78
2022/12/30 04:46:20;;;;;;;1.30;0.50;;;5.90;99.90;;;;;;4992628;28;20941;-79
2022/12/30 04:48:46;;;;;;;1.00;0.60;;;5.90;99.90;;;;;;4992438;28;20185;-79
2022/12/30 04:51:12;;;;;;;1.43;0.47;;;5.80;99.90;;;;;;4992247;28;20724;-80
2022/12/30 04:53:37;;;;;;;0.70;0.50;;;5.90;99.90;;;;;;4976109;28;20780;-80
2022/12/30 04:56:03;;;;;;;1.00;0.60;;;5.80;99.90;;;;;;4992231;28;20185;-80
2022/12/30 04:58:29;;;;;;;0.60;0.40;;;5.80;99.90;;;;;;4992480;28;20217;-80
2022/12/30 05:00:54;;;;;;;0.70;0.40;;;5.80;99.90;;;;;;4976140;28;20579;-80
2022/12/30 05:03:20;;;;;;;1.00;0.80;;;5.80;99.90;;;;;;4976005;28;20243;-79
2022/12/30 05:05:46;;;;;;;0.70;0.50;;;5.80;99.90;;;;;;4975823;28;20287;-79
2022/12/30 05:08:12;;;;;;;0.70;0.40;;;5.80;99.90;;;;;;4975904;28;20188;-80
2022/12/30 05:10:38;;;;;;;1.80;0.40;;;5.90;99.90;;;;;;4975542;28;20448;-79
2022/12/30 05:13:05;;;;;;;3.55;0.80;;;5.90;99.90;;;;;;4975583;28;20464;-78
2022/12/30 05:15:31;;;;;;;1.55;0.50;;;5.90;99.90;;;;;;4991368;28;20200;-78
2022/12/30 05:17:57;;;;;;;1.00;0.50;;;5.90;99.90;;;;;;4992702;28;20723;-80
2022/12/30 05:20:23;;;;;;;0.93;0.40;;;5.90;99.90;;;;;;4974840;28;20448;-77
2022/12/30 05:22:48;;;;;;;0.70;0.50;;;6.00;99.90;;;;;;4992708;28;20181;-78
2022/12/30 05:27:59;;;;;;;1.00;0.47;;;6.30;99.90;;;;;;4991516;28;20177;-79
2022/12/30 05:30:25;;;;;;;0.70;0.40;;;6.10;99.90;;;;;;4990516;28;20832;-78
2022/12/30 05:32:51;;;;;;;0.70;0.40;;;6.10;99.90;;;;;;4975129;28;20543;-79
2022/12/30 05:35:16;;;;;;;2.13;0.40;;;6.10;99.90;;;;;;4992529;28;20427;-79
2022/12/30 05:37:42;;;;;;;1.17;0.40;;;6.20;99.90;;;;;;4974768;28;20213;-80
2022/12/30 05:40:09;;;;;;;0.70;0.50;;;6.20;99.90;;;;;;4991844;28;20762;-78
2022/12/30 05:42:35;;;;;;;1.10;0.53;;;6.20;99.90;;;;;;4959413;28;20202;-78
2022/12/30 05:45:01;;;;;;;1.33;0.57;;;6.10;99.90;;;;;;4990669;28;20467;-78
2022/12/30 05:47:26;;;;;;;1.30;0.60;;;6.00;99.90;;;;;;4974394;28;20790;-78
2022/12/30 05:49:52;;;;;;;3.00;0.40;;;6.00;99.90;;;;;;4990398;28;20205;-79
2022/12/30 05:52:17;;;;;;;1.27;0.43;;;6.10;99.90;;;;;;4990506;28;20174;-76
2022/12/30 05:54:43;;;;;;;1.00;0.67;;;6.10;99.90;;;;;;4990231;28;20221;-76
2022/12/30 05:57:09;;;;;;;0.70;0.40;;;6.10;99.90;;;;;;4991291;28;20629;-75
2022/12/30 05:59:35;;;;;;;1.77;0.60;;;6.10;99.90;;;;;;4991217;28;20213;-75
2022/12/30 06:02:01;;;;;;;0.90;0.40;;;6.10;99.90;;;;;;4991246;28;21325;-76
2022/12/30 06:04:27;;;;;;;1.27;0.40;;;6.10;99.90;;;;;;4991283;28;20897;-75
2022/12/30 06:06:52;;;;;;;1.73;0.60;;;6.10;99.90;;;;;;4991160;28;20428;-76
2022/12/30 06:09:18;;;;;;;1.20;0.50;;;6.10;99.90;;;;;;4957446;28;20463;-76
2022/12/30 06:11:43;;;;;;;1.37;0.57;;;6.10;99.90;;;;;;4991046;28;20264;-75
2022/12/30 06:14:12;;;;;;;1.23;0.50;;;6.10;99.90;;;;;;4990855;28;20194;-75
2022/12/30 06:16:37;;;;;;;0.70;0.40;;;6.10;99.90;;;;;;4990648;28;20248;-75
2022/12/30 06:19:03;;;;;;;0.70;0.40;;;6.10;99.90;;;;;;4991129;28;20448;-77
2022/12/30 06:21:29;;;;;;;0.70;0.60;;;6.10;99.90;;;;;;4989662;28;20213;-76
2022/12/30 06:23:54;;;;;;;1.77;0.50;;;6.10;99.90;;;;;;4989571;28;20237;-76
2022/12/30 06:26:20;;;;;;;3.23;1.07;;;6.20;99.90;;;;;;4989572;28;20286;-76
2022/12/30 06:28:45;;;;;;;0.80;0.40;;;6.10;99.90;;;;;;4990034;28;20186;-76
2022/12/30 06:31:11;;;;;;;2.40;0.60;;;6.10;99.90;;;;;;4989450;28;20889;-76
2022/12/30 06:33:37;;;;;;;0.70;0.40;;;6.20;99.90;;;;;;4956886;28;20201;-76
2022/12/30 06:36:02;;;;;;;1.43;0.43;;;6.20;99.90;;;;;;4990705;28;20182;-76
2022/12/30 06:38:28;;;;;;;0.93;0.50;;;6.10;99.90;;;;;;4990778;28;20220;-77
2022/12/30 06:40:53;;;;;;;0.70;0.60;;;6.00;99.90;;;;;;4989124;28;20236;-76
2022/12/30 06:43:19;;;;;;;2.40;0.50;;;6.00;99.90;;;;;;4990395;28;20180;-76
2022/12/30 06:45:45;;;;;;;0.80;0.40;;;5.90;99.90;;;;;;4988688;28;20210;-76
2022/12/30 06:48:11;;;;;;;0.90;0.53;;;5.90;99.90;;;;;;4990451;28;20178;-77
2022/12/30 06:50:36;;;;;;;2.33;0.80;;;5.90;99.90;;;;;;4990980;28;20242;-78
2022/12/30 06:53:03;;;;;;;1.13;0.60;;;5.80;99.90;;;;;;4991767;28;20847;-76
2022/12/30 06:55:29;;;;;;;0.80;0.43;;;5.80;99.90;;;;;;4992339;28;20226;-77
2022/12/30 06:57:54;;;;;;;0.70;0.47;;;5.80;99.90;;;;;;4988965;28;20628;-78
2022/12/30 07:00:20;;;;;;;1.47;0.30;;;5.80;99.90;;;;;;4990177;28;20208;-77
2022/12/30 07:02:46;;;;;;;0.60;0.43;;;5.80;99.90;;;;;;4990034;28;20554;-76
2022/12/30 07:05:11;;;;;;;1.30;0.50;;;5.80;99.90;;;;;;4990540;28;20209;-77
2022/12/30 07:07:37;;;;;;;0.60;0.40;;;5.80;99.90;;;;;;4989200;28;20209;-77
2022/12/30 07:10:03;;;;;;;3.30;0.70;;;5.80;99.90;;;;;;4989834;28;20194;-76
2022/12/30 07:12:28;;;;;;;0.80;0.50;;;5.70;99.90;;;;;;4990216;28;20742;-77
2022/12/30 07:14:54;;;;;;;1.20;0.40;;;5.70;99.90;;;;;;4988486;28;20511;-77
2022/12/30 07:17:20;;;;;;;1.27;0.50;;;5.70;99.90;;;;;;4988546;28;20192;-77
2022/12/30 07:19:48;;;;;;;1.83;0.70;;;5.60;99.90;;;;;;4989736;28;20702;-76
2022/12/30 07:22:15;;;;;;;1.00;0.60;;;5.70;99.90;;;;;;4956628;28;20197;-76
2022/12/30 07:24:41;;;;;;;0.90;0.50;;;5.60;99.90;;;;;;4972159;28;20557;-76
2022/12/30 07:27:09;;;;;;;0.90;0.40;;;5.60;99.90;;;;;;4972633;28;20220;-76
2022/12/30 07:29:35;;;;;;;1.33;0.40;;;5.70;99.90;;;;;;4988321;28;20444;-76
2022/12/30 07:32:01;;;;;;;0.70;0.40;;;5.60;99.90;;;;;;4990189;28;20444;-76
2022/12/30 07:34:26;;;;;;;0.70;0.50;;;5.70;99.90;;;;;;4991042;28;20935;-77
2022/12/30 07:36:52;;;;;;;2.20;0.50;;;5.70;99.90;;;;;;4990299;28;20190;-77
2022/12/30 07:39:17;;;;;;;0.80;0.53;;;5.70;99.90;;;;;;4990101;28;20252;-77
2022/12/30 07:41:43;;;;;;;0.90;0.70;;;5.70;99.90;;;;;;4991454;28;20197;-78
2022/12/30 07:44:08;;;;;;;0.80;0.50;;;5.70;99.90;;;;;;4989645;28;20588;-77
2022/12/30 07:46:36;;;;;;;1.77;0.40;;;5.80;99.90;;;;;;4989813;28;20190;-77
2022/12/30 07:49:02;;;;;;;0.70;0.40;;;5.80;99.90;;;;;;4973722;28;20210;-77
2022/12/30 07:51:28;;;;;;;61.97;29.27;;;5.70;99.90;;;;;;4990823;28;20429;-77
2022/12/30 07:53:54;;;;;;;1.70;0.67;;;5.80;99.90;;;;;;4991057;28;20908;-77
2022/12/30 07:56:19;;;;;;;2.20;0.80;;;5.80;99.90;;;;;;4990781;28;21008;-78
2022/12/30 07:58:45;;;;;;;3.20;0.87;;;5.80;99.90;;;;;;4989380;28;20431;-77
2022/12/30 08:01:13;;;;;;;0.60;0.40;;;5.80;99.90;;;;;;4990827;28;20264;-77
2022/12/30 08:03:43;;;;;;;1.30;0.67;;;5.80;99.90;;;;;;4990247;28;20571;-77
2022/12/30 08:06:17;;;;;;;0.90;0.67;;;5.80;99.90;;;;;;4990477;28;20444;-77
2022/12/30 08:08:43;;;;;;;2.43;0.50;;;5.90;99.90;;;;;;4989843;28;20765;-77
2022/12/30 08:11:10;;;;;;;2.33;1.00;;;6.30;99.90;;;;;;4988853;28;20504;-76
2022/12/30 08:13:38;;;;;;;0.70;0.50;;;6.80;99.90;;;;;;4973801;28;20423;-77
2022/12/30 08:16:13;;;;;;;0.93;0.50;;;7.20;99.90;;;;;;4993430;28;20500;-77
2022/12/30 08:18:39;;;;;;;0.70;0.40;;;7.50;99.90;;;;;;4974652;28;20430;-77
2022/12/30 08:21:07;;;;;;;2.53;0.63;;;7.70;99.90;;;;;;4992835;28;20420;-77
2022/12/30 08:23:33;;;;;;;1.10;0.60;;;8.10;99.90;;;;;;4974809;28;20424;-77
2022/12/30 08:26:11;;;;;;;0.90;0.50;;;8.20;99.90;;;;;;4974511;28;20810;-77
2022/12/30 08:28:38;;;;;;;3.00;0.50;;;8.70;99.90;;;;;;4992098;28;20423;-77
2022/12/30 08:31:07;;;;;;;1.00;0.53;;;8.80;99.90;;;;;;4992477;28;20424;-77
2022/12/30 08:33:33;;;;;;;2.13;0.90;;;9.20;99.90;;;;;;4992785;28;20441;-78
2022/12/30 08:36:06;;;;;;;1.47;0.60;;;9.00;99.90;;;;;;4994036;28;20960;-77
2022/12/30 08:38:41;;;;;;;0.80;0.57;;;9.40;99.90;;;;;;4993838;28;20457;-77
2022/12/30 08:41:11;;;;;;;1.17;0.50;;;9.30;99.90;;;;;;4992260;28;20638;-77
2022/12/30 08:43:37;;;;;;;2.07;0.60;;;9.60;99.90;;;;;;4992209;28;20485;-78
2022/12/30 08:46:03;;;;;;;1.40;0.70;;;9.10;99.90;;;;;;4976753;28;20420;-78
2022/12/30 08:48:30;;;;;;;1.00;0.60;;;9.30;99.90;;;;;;4994660;28;20711;-77
2022/12/30 08:50:56;;;;;;;1.90;0.57;;;9.60;99.90;;;;;;4994225;28;20992;-78
2022/12/30 08:53:22;;;;;;;0.73;0.50;;;9.40;99.90;;;;;;4994124;28;20436;-77
2022/12/30 08:55:56;;;;;;;1.77;0.50;;;9.00;99.90;;;;;;4992623;28;20505;-77
2022/12/30 08:58:22;;;;;;;1.20;0.50;;;9.20;99.90;;;;;;4976498;28;20235;-78
2022/12/30 09:00:47;;;;;;;0.70;0.50;;;9.90;99.90;;;;;;4976171;28;20545;-78
2022/12/30 09:03:13;;;;;;;0.90;0.67;;;9.70;99.90;;;;;;4992061;28;20207;-77
2022/12/30 09:05:39;;;;;;;0.70;0.40;;;9.10;99.90;;;;;;4975895;28;20243;-77
2022/12/30 09:08:05;;;;;;;0.90;0.50;;;8.70;99.90;;;;;;4990911;28;20357;-78
2022/12/30 09:10:30;;;;;;;1.73;0.63;;;8.40;99.90;;;;;;4990691;28;20195;-77
2022/12/30 09:12:56;;;;;;;1.60;0.60;;;8.40;99.90;;;;;;4991839;28;20921;-77
2022/12/30 09:15:21;;;;;;;1.30;0.70;;;8.10;99.90;;;;;;4990373;28;20190;-76
2022/12/30 09:17:47;;;;;;;0.80;0.57;;;8.00;99.90;;;;;;4991993;28;20612;-77
2022/12/30 09:20:12;;;;;;;0.77;0.60;;;8.20;99.90;;;;;;4991649;28;20213;-77
2022/12/30 09:22:38;;;;;;;1.43;0.60;;;8.20;99.90;;;;;;4991744;28;20524;-76
2022/12/30 09:25:04;;;;;;;1.07;0.60;;;8.20;99.90;;;;;;4989574;28;20225;-75
2022/12/30 09:27:30;;;;;;;3.57;0.70;;;8.40;99.90;;;;;;4974025;28;20284;-77
2022/12/30 09:29:55;;;;;;;0.70;0.50;;;8.40;99.90;;;;;;4991346;28;20491;-77
2022/12/30 09:32:21;;;;;;;0.80;0.60;;;8.60;99.90;;;;;;4991281;28;20197;-76
2022/12/30 09:34:46;;;;;;;1.03;0.60;;;8.60;99.90;;;;;;4989923;28;20349;-76
2022/12/30 09:37:12;;;;;;;1.30;0.50;;;9.20;99.90;;;;;;4991507;28;20200;-77
2022/12/30 09:39:38;;;;;;;1.10;0.60;;;10.10;99.90;;;;;;4973828;28;20211;-77
2022/12/30 09:45:16;;;;;;;1.20;0.50;;;12.30;99.90;;;;;;4990662;28;20275;-77
2022/12/30 09:47:54;;;;;;;0.90;0.50;;;13.10;97.10;;;;;;4973981;28;20427;-77
2022/12/30 09:50:38;;;;;;;1.80;0.60;;;13.60;96.30;;;;;;4992129;28;21009;-77
2022/12/30 09:53:16;;;;;;;1.70;0.60;;;14.00;95.20;;;;;;4990564;28;20950;-77
2022/12/30 09:55:53;;;;;;;0.90;0.50;;;14.40;93.20;;;;;;4992178;28;20429;-77
2022/12/30 09:58:29;;;;;;;0.70;0.40;;;14.10;92.60;;;;;;4991942;28;20412;-77
2022/12/30 10:01:03;;;;;;;1.53;0.50;;;14.80;93.50;;;;;;4973876;28;20452;-78
2022/12/30 10:03:29;;;;;;;1.10;0.70;;;15.80;90.30;;;;;;4991873;28;20800;-77
2022/12/30 10:06:25;;;;;;;0.90;0.70;;;16.10;88.10;;;;;;4990167;28;20471;-77
2022/12/30 10:09:06;;;;;;;0.90;0.50;;;14.60;91.20;;;;;;4991709;28;20422;-77
2022/12/30 10:12:01;;;;;;;0.90;0.50;;;14.00;92.90;;;;;;4989815;28;20425;-78
2022/12/30 10:14:41;;;;;;;0.80;0.50;;;15.70;91.30;;;;;;4990983;28;20909;-78
2022/12/30 10:17:18;;;;;;;0.90;0.73;;;16.20;87.10;;;;;;4989857;28;20462;-77
2022/12/30 10:19:51;;;;;;;0.90;0.60;;;16.50;86.00;;;;;;4989622;28;20445;-77
2022/12/30 10:22:44;;;;;;;1.10;0.50;;;17.70;84.50;;;;;;4973301;28;20531;-77
2022/12/30 10:25:19;;;;;;;0.80;0.50;;;18.90;80.80;;;;;;4990490;28;20464;-78
2022/12/30 10:27:46;;;;;;;0.80;0.60;;;19.70;77.40;;;;;;4994870;28;20412;-77
2022/12/30 10:30:15;;;;;;;0.70;0.40;;;20.10;74.10;;;;;;4995941;28;20476;-77
2022/12/30 10:32:54;;;;;;;1.00;0.70;;;20.40;71.00;;;;;;4975732;28;20445;-76
2022/12/30 10:35:40;;;;;;;1.53;0.60;;;20.40;70.70;;;;;;4975927;28;20439;-78
2022/12/30 10:38:11;;;;;;;1.00;0.70;;;21.00;68.00;;;;;;4989431;28;20444;-77
2022/12/30 10:41:03;;;;;;;0.90;0.77;;;20.80;66.90;;;;;;4989431;28;20464;-75
2022/12/30 10:43:57;;;;;;;1.10;0.93;;;21.90;63.90;;;;;;4973620;28;20441;-76
2022/12/30 10:46:56;;;;;;;0.80;0.50;;;22.10;62.90;;;;;;4990159;28;20428;-75
2022/12/30 10:49:22;;;;;;;1.10;0.70;;;21.90;61.10;;;;;;4972614;28;20801;-76
2022/12/30 10:51:49;;;;;;;0.90;0.50;;;21.80;60.70;;;;;;4989855;28;20502;-78
2022/12/30 10:54:15;;;;;;;0.80;0.50;;;21.20;59.40;;;;;;4972030;28;20429;-75
2022/12/30 10:56:43;;;;;;;0.80;0.50;;;19.10;63.00;;;;;;4989677;28;20413;-75
2022/12/30 10:59:14;;;;;;;0.97;0.53;;;18.70;66.40;;;;;;4989724;28;20944;-75
2022/12/30 11:01:42;;;;;;;1.03;0.70;;;17.60;67.90;;;;;;4989488;28;20464;-75
2022/12/30 11:04:38;;;;;;;0.90;0.50;;;17.20;70.20;;;;;;4987994;28;20460;-75
2022/12/30 11:07:09;;;;;;;1.23;0.67;;;17.80;69.80;;;;;;4989189;28;20424;-75
2022/12/30 11:09:36;;;;;;;1.10;0.50;;;17.70;67.60;;;;;;4989486;28;20552;-76
2022/12/30 11:15:14;;;;;;;1.17;0.50;;;18.20;67.50;;;;;;4989040;28;20606;-77
2022/12/30 11:17:40;;;;;;;0.80;0.50;;;18.90;67.80;;;;;;4989048;28;20423;-77
2022/12/30 11:20:22;;;;;;;2.27;0.70;;;19.20;66.10;;;;;;4988996;28;20466;-76
2022/12/30 11:22:50;;;;;;;0.83;0.50;;;17.10;67.10;;;;;;4988966;28;20175;-76
2022/12/30 11:25:30;;;;;;;1.07;0.50;;;16.70;70.30;;;;;;4989202;28;20504;-75
2022/12/30 11:27:59;;;;;;;1.00;0.50;;;15.90;73.30;;;;;;4971363;28;20934;-77
2022/12/30 11:30:45;;;;;;;0.80;0.50;;;14.80;76.40;;;;;;4989153;28;20454;-78
2022/12/30 11:33:19;;;;;;;0.90;0.50;;;14.80;77.30;;;;;;4989073;28;20430;-77
2022/12/30 11:35:47;;;;;;;0.80;0.40;;;14.00;78.90;;;;;;4989081;28;20452;-76
2022/12/30 11:38:32;;;;;;;1.83;0.40;;;13.50;81.60;;;;;;4989646;28;20523;-78
2022/12/30 11:41:15;;;;;;;0.90;0.60;;;13.20;85.40;;;;;;4988598;28;20557;-77
2022/12/30 11:43:58;;;;;;;1.20;0.60;;;12.30;88.60;;;;;;4989147;28;21075;-78
2022/12/30 11:46:43;;;;;;;3.23;0.70;;;12.90;90.90;;;;;;4987273;28;20449;-77
2022/12/30 11:49:47;;;;;;;1.63;0.50;;;12.80;90.60;;;;;;4993398;28;20495;-77
2022/12/30 11:52:22;;;;;;;1.00;0.57;;;12.20;90.50;;;;;;4976159;28;20435;-77
2022/12/30 11:55:12;;;;;;;1.20;0.40;;;12.50;91.90;;;;;;4995212;28;20419;-77
2022/12/30 11:57:42;;;;;;;1.30;0.60;;;12.50;91.90;;;;;;4994666;28;20439;-77
2022/12/30 12:00:16;;;;;;;0.80;0.50;;;12.00;92.00;;;;;;4995184;28;20481;-77
2022/12/30 12:02:54;;;;;;;1.63;0.80;;;12.20;94.00;;;;;;4993612;28;20434;-77
2022/12/30 12:05:22;;;;;;;1.93;0.50;;;12.00;94.40;;;;;;4995230;28;20466;-77
2022/12/30 12:07:50;;;;;;;1.00;0.70;;;11.90;94.20;;;;;;4995375;28;20427;-77
2022/12/30 12:10:59;;;;;;;1.70;0.80;;;11.20;95.70;;;;;;4995071;28;20815;-77
2022/12/30 12:13:46;;;;;;;0.80;0.40;;;11.10;97.70;;;;;;4989477;28;20521;-77
2022/12/30 12:16:16;;;;;;;1.00;0.60;;;11.10;97.40;;;;;;4995116;28;21029;-77
2022/12/30 12:18:53;;;;;;;0.97;0.73;;;10.90;99.20;;;;;;4995068;28;20563;-77
2022/12/30 12:21:26;;;;;;;0.77;0.53;;;11.00;99.20;;;;;;4995002;28;20430;-77
2022/12/30 12:24:16;;;;;;;2.03;0.63;;;10.90;99.40;;;;;;4994918;28;20782;-77
2022/12/30 12:27:03;;;;;;;0.80;0.50;;;10.60;99.90;;;;;;4995541;28;20414;-77
2022/12/30 12:29:29;;;;;;;0.93;0.50;;;10.30;99.90;;;;;;4995441;28;20887;-76
2022/12/30 12:32:31;;;;;;;0.80;0.50;;;10.50;99.90;;;;;;4995329;28;20950;-77
2022/12/30 12:35:05;;;;;;;1.20;0.50;;;10.40;99.90;;;;;;4995276;28;20827;-77
2022/12/30 12:37:39;;;;;;;1.63;0.60;;;10.30;99.90;;;;;;4995060;28;20795;-77
2022/12/30 12:40:14;;;;;;;0.80;0.50;;;10.20;99.90;;;;;;4994777;28;20932;-77
2022/12/30 12:42:39;;;;;;;1.00;0.50;;;10.10;99.90;;;;;;4993388;28;20426;-77
2022/12/30 12:45:11;;;;;;;1.80;0.70;;;10.00;99.90;;;;;;4995050;28;20473;-77
2022/12/30 12:47:53;;;;;;;0.70;0.50;;;10.10;99.90;;;;;;4995157;28;20181;-77
2022/12/30 12:50:29;;;;;;;0.70;0.50;;;10.10;99.90;;;;;;4995035;28;20442;-77
2022/12/30 12:53:13;;;;;;;1.23;0.60;;;10.00;99.90;;;;;;4995152;28;20505;-77
2022/12/30 12:56:01;;;;;;;0.97;0.50;;;9.90;99.90;;;;;;4995050;28;20428;-77
2022/12/30 12:58:41;;;;;;;2.27;1.23;;;10.00;99.90;;;;;;4994914;28;20419;-78
2022/12/30 13:01:10;;;;;;;2.00;0.57;;;10.10;99.90;;;;;;4990807;28;20800;-77
2022/12/30 13:03:36;;;;;;;0.80;0.60;;;10.10;99.90;;;;;;4991666;28;20504;-78
2022/12/30 13:06:34;;;;;;;0.80;0.50;;;10.10;99.90;;;;;;4990428;28;20620;-77
2022/12/30 13:09:23;;;;;;;0.70;0.43;;;10.10;99.90;;;;;;4992013;28;20206;-77
2022/12/30 13:12:12;;;;;;;1.57;0.63;;;10.10;99.90;;;;;;4991990;28;20455;-77
2022/12/30 13:14:54;;;;;;;1.13;0.60;;;10.10;99.90;;;;;;4992628;28;20483;-77
2022/12/30 13:17:34;;;;;;;1.00;0.53;;;10.20;99.90;;;;;;4991841;28;20436;-77
2022/12/30 13:20:05;;;;;;;1.20;0.70;;;10.30;99.90;;;;;;4990497;28;20507;-77
2022/12/30 13:22:37;;;;;;;1.00;0.67;;;10.30;99.90;;;;;;4991567;28;20424;-77
2022/12/30 13:25:12;;;;;;;0.87;0.70;;;10.30;99.90;;;;;;4991609;28;20472;-77
2022/12/30 13:27:39;;;;;;;1.00;0.90;;;10.30;99.90;;;;;;4973743;28;20461;-77
2022/12/30 13:30:05;;;;;;;1.40;0.77;;;10.10;99.90;;;;;;4989654;28;20455;-77
2022/12/30 13:32:43;;;;;;;4.50;0.97;;;10.30;99.90;;;;;;4989390;28;20458;-77
2022/12/30 13:35:30;;;;;;;3.23;1.60;;;10.20;99.90;;;;;;4988741;28;20426;-77
2022/12/30 13:38:18;;;;;;;1.23;1.13;;;10.10;99.90;;;;;;4972549;28;20425;-77
2022/12/30 13:41:21;;;;;;;2.27;1.50;;;10.10;99.90;;;;;;4990589;28;20449;-77
2022/12/30 13:43:50;;;;;;;9.27;2.03;;;10.10;99.90;;;;;;4989101;28;20434;-77
2022/12/30 13:46:29;;;;;;;5.53;1.90;;;10.10;99.90;;;;;;4988632;28;20929;-77
2022/12/30 13:49:06;;;;;;;3.23;2.40;;;10.00;99.90;;;;;;4990163;28;20410;-77
2022/12/30 13:51:32;;;;;;;2.77;2.03;;;10.10;99.90;;;;;;4989914;28;20782;-77
2022/12/30 13:54:19;;;;;;;2.17;1.87;;;10.00;99.90;;;;;;4989613;28;20492;-77
2022/12/30 13:56:48;;;;;;;2.60;1.73;;;10.00;99.90;;;;;;4990044;28;20410;-78
2022/12/30 13:59:35;;;;;;;3.43;1.27;;;10.00;99.90;;;;;;4989692;28;20440;-77
2022/12/30 14:02:19;;;;;;;3.03;1.70;;;10.00;99.90;;;;;;4989670;28;20921;-77
2022/12/30 14:04:53;;;;;;;2.93;1.27;;;10.00;99.90;;;;;;4987709;28;20468;-77
2022/12/30 14:07:37;;;;;;;1.00;0.90;;;10.00;99.90;;;;;;4971700;28;20427;-75